createdAt,value
2023-04-16T00:00:39.148Z,15.90
2023-04-16T00:05:40.853Z,15.60
2023-04-16T00:10:44.051Z,15.65
2023-04-16T00:15:45.742Z,16.55
2023-04-16T00:20:47.910Z,16.80
2023-04-16T00:25:51.147Z,15.98
2023-04-16T00:30:52.959Z,16.00
2023-04-16T00:35:54.720Z,16.95
2023-04-16T00:40:57.737Z,16.60
2023-04-16T00:45:59.558Z,17.02
2023-04-16T00:51:01.406Z,16.25
2023-04-16T00:56:06.871Z,17.12
2023-04-16T01:01:08.789Z,15.20
2023-04-16T01:06:11.178Z,16.00
2023-04-16T01:11:14.831Z,16.25
2023-04-16T01:16:16.627Z,14.85
2023-04-16T01:21:19.740Z,17.10
2023-04-16T01:26:21.475Z,14.82
2023-04-16T01:31:23.179Z,17.23
2023-04-16T01:36:26.192Z,16.80
2023-04-16T01:41:27.838Z,17.90
2023-04-16T01:46:32.254Z,16.92
2023-04-16T01:51:35.260Z,17.13
2023-04-16T01:56:36.898Z,16.50
2023-04-16T02:01:38.780Z,17.50
2023-04-16T02:06:41.743Z,15.50
2023-04-16T02:11:43.406Z,15.35
2023-04-16T02:16:45.200Z,16.23
2023-04-16T02:21:48.351Z,15.38
2023-04-16T02:26:50.044Z,18.60
2023-04-16T02:31:51.724Z,17.37
2023-04-16T02:36:54.932Z,17.90
2023-04-16T02:41:56.639Z,16.90
2023-04-16T02:46:58.256Z,16.80
2023-04-16T02:52:01.331Z,18.92
2023-04-16T02:57:03.129Z,19.30
2023-04-16T03:02:04.909Z,18.20
2023-04-16T03:07:08.032Z,17.42
2023-04-16T03:12:09.685Z,17.80
2023-04-16T03:17:11.381Z,18.48
2023-04-16T03:22:14.504Z,18.45
2023-04-16T03:27:16.170Z,18.27
2023-04-16T03:32:18.336Z,18.90
2023-04-16T03:37:21.450Z,17.90
2023-04-16T03:42:23.156Z,19.75
2023-04-16T03:47:24.902Z,20.15
2023-04-16T03:52:27.938Z,18.17
2023-04-16T03:57:29.613Z,18.05
2023-04-16T04:02:31.375Z,19.77
2023-04-16T04:07:34.484Z,18.58
2023-04-16T04:12:36.152Z,18.83
2023-04-16T04:17:37.937Z,18.48
2023-04-16T04:22:41.040Z,19.20
2023-04-16T04:27:43.020Z,17.65
2023-04-16T04:32:44.754Z,20.08
2023-04-16T04:37:48.000Z,20.17
2023-04-16T04:42:49.657Z,18.55
2023-04-16T04:47:51.789Z,18.87
2023-04-16T04:52:54.780Z,19.10
2023-04-16T04:57:56.422Z,19.58
2023-04-16T05:02:58.202Z,18.92
2023-04-16T05:08:01.273Z,18.15
2023-04-16T05:13:03.053Z,19.58
2023-04-16T05:18:04.805Z,18.25
2023-04-16T05:23:07.936Z,18.62
2023-04-16T05:28:10.048Z,16.83
2023-04-16T05:33:11.732Z,17.33
2023-04-16T05:38:14.829Z,18.40
2023-04-16T05:43:16.609Z,17.50
2023-04-16T05:48:18.266Z,18.25
2023-04-16T05:53:21.812Z,18.50
2023-04-16T05:58:23.587Z,19.08
2023-04-16T06:03:25.369Z,18.95
2023-04-16T06:08:28.526Z,18.95
2023-04-16T06:13:30.243Z,18.08
2023-04-16T06:18:34.414Z,17.45
2023-04-16T06:23:37.589Z,19.85
2023-04-16T06:28:39.248Z,18.00
2023-04-16T06:33:40.936Z,19.20
2023-04-16T06:38:44.156Z,19.70
2023-04-16T06:43:45.980Z,20.02
2023-04-16T06:48:47.641Z,19.58
2023-04-16T06:53:50.676Z,18.52
2023-04-16T06:58:52.353Z,20.85
2023-04-16T07:03:54.461Z,19.42
2023-04-16T07:08:57.856Z,19.95
2023-04-16T07:13:59.583Z,20.05
2023-04-16T07:19:01.276Z,21.70
2023-04-16T07:24:04.659Z,19.73
2023-04-16T07:29:06.424Z,20.85
2023-04-16T07:34:08.110Z,20.75
2023-04-16T07:39:11.301Z,21.23
2023-04-16T07:44:13.186Z,21.05
2023-04-16T07:49:15.176Z,21.00
2023-04-16T07:54:18.265Z,19.58
2023-04-16T07:59:23.913Z,18.65
2023-04-16T08:04:26.574Z,18.70
2023-04-16T08:09:32.429Z,20.52
2023-04-16T08:14:34.321Z,17.17
2023-04-16T08:19:36.026Z,18.58
2023-04-16T08:24:39.170Z,19.25
2023-04-16T08:29:40.831Z,17.27
2023-04-16T08:34:42.966Z,19.58
2023-04-16T08:39:46.036Z,18.12
2023-04-16T08:44:49.486Z,18.75
2023-04-16T08:49:58.332Z,17.12
2023-04-16T08:55:05.482Z,17.35
2023-04-16T09:00:08.572Z,19.75
2023-04-16T09:05:13.055Z,17.85
2023-04-16T09:10:16.638Z,19.55
2023-04-16T09:15:20.807Z,19.42
2023-04-16T09:20:22.645Z,20.08
2023-04-16T09:25:25.807Z,17.73
2023-04-16T09:30:28.158Z,19.62
2023-04-16T09:35:45.472Z,20.75
2023-04-16T09:41:05.298Z,20.25
2023-04-16T09:46:08.183Z,19.50
2023-04-16T09:51:10.243Z,19.48
2023-04-16T09:56:26.332Z,18.37
2023-04-16T10:01:30.376Z,19.27
2023-04-16T10:06:32.082Z,19.05
2023-04-16T10:11:35.168Z,19.58
2023-04-16T10:16:37.149Z,18.80
2023-04-16T10:21:39.557Z,19.23
2023-04-16T10:26:43.897Z,20.05
2023-04-16T10:31:46.747Z,18.00
2023-04-16T10:36:50.123Z,17.42
2023-04-16T10:42:07.744Z,17.92
2023-04-16T10:47:13.526Z,19.62
2023-04-16T10:52:16.407Z,18.17
2023-04-16T10:57:20.334Z,18.30
2023-04-16T11:02:28.909Z,18.02
2023-04-16T11:07:33.710Z,19.25
2023-04-16T11:12:38.979Z,21.62
2023-04-16T11:17:43.472Z,20.35
2023-04-16T11:22:45.420Z,20.33
2023-04-16T11:27:48.678Z,22.08
2023-04-16T11:32:50.509Z,20.75
2023-04-16T11:37:56.740Z,21.77
2023-04-16T11:43:04.072Z,23.02
2023-04-16T11:48:06.321Z,22.85
2023-04-16T11:53:08.125Z,24.10
2023-04-16T11:58:13.941Z,23.52
2023-04-16T12:03:16.491Z,25.98
2023-04-16T12:08:29.240Z,24.40
2023-04-16T12:13:32.355Z,25.62
2023-04-16T12:18:34.046Z,23.08
2023-04-16T12:23:35.759Z,25.17
2023-04-16T12:28:38.882Z,23.92
2023-04-16T12:33:40.583Z,24.27
2023-04-16T12:38:42.296Z,24.55
2023-04-16T12:43:45.478Z,24.83
2023-04-16T12:48:47.309Z,25.65
2023-04-16T12:53:49.325Z,26.70
2023-04-16T12:58:52.640Z,28.45
2023-04-16T13:03:54.520Z,25.45
2023-04-16T13:08:56.406Z,27.87
2023-04-16T13:13:59.559Z,26.80
2023-04-16T13:19:01.370Z,27.55
2023-04-16T13:24:03.314Z,24.35
2023-04-16T13:29:06.489Z,24.95
2023-04-16T13:34:08.250Z,23.67
2023-04-16T13:39:10.112Z,21.90
2023-04-16T13:44:13.504Z,22.40
2023-04-16T13:49:15.422Z,21.35
2023-04-16T13:54:17.072Z,21.10
2023-04-16T13:59:20.173Z,21.87
2023-04-16T14:04:21.859Z,21.70
2023-04-16T14:09:23.589Z,20.48
2023-04-16T14:14:26.622Z,20.67
2023-04-16T14:19:28.469Z,22.45
2023-04-16T14:24:30.152Z,22.02
2023-04-16T14:29:33.330Z,23.20
2023-04-16T14:34:35.100Z,21.08
2023-04-16T14:39:36.962Z,22.77
2023-04-16T14:44:40.140Z,22.17
2023-04-16T14:49:41.991Z,22.70
2023-04-16T14:54:43.832Z,21.77
2023-04-16T14:59:46.938Z,22.65
2023-04-16T15:04:48.815Z,21.45
2023-04-16T15:09:51.056Z,22.27
2023-04-16T15:14:54.177Z,20.50
2023-04-16T15:19:55.894Z,19.85
2023-04-16T15:24:57.616Z,21.92
2023-04-16T15:30:00.845Z,24.00
2023-04-16T15:35:02.777Z,23.48
2023-04-16T15:40:05.443Z,25.15
2023-04-16T15:45:09.192Z,26.08
2023-04-16T15:50:11.010Z,26.83
2023-04-16T15:55:12.967Z,23.27
2023-04-16T16:00:16.411Z,21.33
2023-04-16T16:05:18.178Z,23.00
2023-04-16T16:10:20.049Z,22.20
2023-04-16T16:15:23.187Z,19.62
2023-04-16T16:20:25.342Z,18.00
2023-04-16T16:25:27.010Z,19.23
2023-04-16T16:30:30.086Z,19.12
2023-04-16T16:35:31.759Z,19.98
2023-04-16T16:40:33.457Z,18.83
2023-04-16T16:45:36.534Z,17.15
2023-04-16T16:50:38.309Z,17.67
2023-04-16T16:55:39.985Z,18.92
2023-04-16T17:00:43.076Z,17.60
2023-04-16T17:05:44.823Z,19.25
2023-04-16T17:10:46.559Z,19.73
2023-04-16T17:15:49.595Z,19.58
2023-04-16T17:20:51.642Z,19.15
2023-04-16T17:25:53.438Z,19.15
2023-04-16T17:30:56.402Z,19.27
2023-04-16T17:35:58.082Z,18.62
2023-04-16T17:40:59.996Z,18.15
2023-04-16T17:46:25.859Z,17.73
2023-04-16T17:51:27.694Z,17.37
2023-04-16T17:56:29.415Z,18.73
2023-04-16T18:01:32.638Z,18.90
2023-04-16T18:06:34.419Z,19.58
2023-04-16T18:11:36.170Z,17.98
2023-04-16T18:16:39.310Z,19.58
2023-04-16T18:21:41.242Z,19.98
2023-04-16T18:26:46.252Z,20.40
2023-04-16T18:31:50.361Z,21.98
2023-04-16T18:36:52.312Z,19.58
2023-04-16T18:41:54.063Z,22.05
2023-04-16T18:46:57.308Z,22.27
2023-04-16T18:51:59.065Z,22.02
2023-04-16T18:57:01.019Z,24.20
2023-04-16T19:02:04.336Z,23.70
2023-04-16T19:07:06.101Z,25.12
2023-04-16T19:12:07.870Z,26.25
2023-04-16T19:17:11.301Z,24.63
2023-04-16T19:22:15.273Z,23.75
2023-04-16T19:27:17.046Z,25.58
2023-04-16T19:32:20.209Z,26.40
2023-04-16T19:37:21.988Z,28.20
2023-04-16T19:42:23.779Z,27.58
2023-04-16T19:47:26.889Z,26.23
2023-04-16T19:52:28.600Z,30.60
2023-04-16T19:57:30.269Z,28.40
2023-04-16T20:02:33.366Z,28.83
2023-04-16T20:07:35.162Z,28.65
2023-04-16T20:12:36.848Z,30.77
2023-04-16T20:17:39.914Z,31.75
2023-04-16T20:22:42.196Z,30.20
2023-04-16T20:27:43.843Z,33.10
2023-04-16T20:32:46.905Z,32.65
2023-04-16T20:37:48.531Z,30.05
2023-04-16T20:42:50.507Z,31.52
2023-04-16T20:47:53.560Z,32.33
2023-04-16T20:52:55.367Z,32.20
2023-04-16T20:57:57.086Z,32.25
2023-04-16T21:03:00.324Z,32.72
2023-04-16T21:08:02.077Z,30.88
2023-04-16T21:13:03.758Z,29.48
2023-04-16T21:18:07.222Z,30.83
2023-04-16T21:23:08.954Z,28.83
2023-04-16T21:28:10.609Z,31.90
2023-04-16T21:33:13.627Z,30.50
2023-04-16T21:38:15.413Z,29.45
2023-04-16T21:43:17.318Z,29.40
2023-04-16T21:48:20.657Z,28.12
2023-04-16T21:53:22.437Z,28.42
2023-04-16T21:58:24.268Z,28.45
2023-04-16T22:03:27.449Z,27.02
2023-04-16T22:08:29.594Z,27.85
2023-04-16T22:13:31.611Z,27.00
2023-04-16T22:18:34.631Z,25.90
2023-04-16T22:23:36.313Z,25.73
2023-04-16T22:28:38.429Z,26.42
2023-04-16T22:33:43.638Z,26.50
2023-04-16T22:38:45.287Z,26.85
2023-04-16T22:43:47.028Z,26.70
2023-04-16T22:48:50.070Z,28.27
2023-04-16T22:53:51.928Z,28.55
2023-04-16T22:58:53.594Z,27.62
2023-04-16T23:03:56.701Z,26.60
2023-04-16T23:08:58.366Z,27.60
2023-04-16T23:14:00.060Z,29.48
2023-04-16T23:19:03.091Z,30.17
2023-04-16T23:24:05.082Z,30.20
2023-04-16T23:29:06.733Z,27.33
2023-04-16T23:34:09.898Z,27.60
2023-04-16T23:39:12.197Z,29.12
2023-04-16T23:44:14.088Z,30.60
2023-04-16T23:49:17.221Z,30.77
2023-04-16T23:54:18.974Z,32.85
2023-04-16T23:59:20.628Z,30.12
